createdAt,value
2018-07-25T00:01:43.488Z,17.70
2018-07-25T00:04:13.395Z,17.70
2018-07-25T00:06:43.379Z,18.27
2018-07-25T00:09:13.317Z,16.47
2018-07-25T00:11:43.230Z,17.43
2018-07-25T00:14:13.156Z,17.17
2018-07-25T00:16:43.107Z,17.10
2018-07-25T00:19:13.029Z,16.40
2018-07-25T00:21:42.992Z,14.73
2018-07-25T00:24:12.804Z,17.63
2018-07-25T00:26:42.645Z,16.83
2018-07-25T00:29:12.543Z,16.80
2018-07-25T00:31:42.348Z,16.17
2018-07-25T00:34:12.233Z,16.07
2018-07-25T00:36:42.058Z,15.40
2018-07-25T00:39:11.968Z,15.67
2018-07-25T00:41:41.926Z,15.90
2018-07-25T00:44:11.842Z,15.70
2018-07-25T00:46:41.762Z,17.30
2018-07-25T00:49:11.825Z,16.03
2018-07-25T00:51:41.868Z,15.50
2018-07-25T00:54:11.827Z,15.10
2018-07-25T00:56:41.719Z,14.47
2018-07-25T00:59:11.680Z,15.07
2018-07-25T01:01:41.596Z,14.90
2018-07-25T01:04:11.600Z,12.70
2018-07-25T01:06:41.500Z,14.10
2018-07-25T01:09:12.129Z,14.87
2018-07-25T01:11:42.028Z,13.90
2018-07-25T01:14:11.996Z,15.07
2018-07-25T01:16:41.865Z,14.90
2018-07-25T01:19:11.760Z,15.13
2018-07-25T01:21:41.771Z,15.40
2018-07-25T01:24:11.684Z,14.23
2018-07-25T01:26:41.624Z,15.20
2018-07-25T01:29:11.451Z,13.33
2018-07-25T01:31:41.421Z,14.60
2018-07-25T01:34:11.275Z,13.60
2018-07-25T01:36:41.151Z,13.90
2018-07-25T01:39:11.763Z,14.00
2018-07-25T01:41:41.660Z,13.10
2018-07-25T01:44:11.572Z,13.00
2018-07-25T01:46:41.553Z,12.43
2018-07-25T01:49:11.484Z,12.83
2018-07-25T01:51:41.338Z,13.50
2018-07-25T01:54:11.330Z,11.70
2018-07-25T01:56:41.262Z,12.70
2018-07-25T01:59:11.087Z,13.33
2018-07-25T02:01:41.051Z,12.67
2018-07-25T02:04:10.996Z,12.70
2018-07-25T02:06:40.940Z,12.20
2018-07-25T02:09:11.712Z,12.23
2018-07-25T02:11:41.627Z,11.70
2018-07-25T02:14:11.555Z,11.53
2018-07-25T02:16:41.430Z,12.00
2018-07-25T02:19:11.623Z,10.93
2018-07-25T02:21:41.488Z,11.90
2018-07-25T02:24:11.425Z,11.70
2018-07-25T02:26:41.272Z,11.63
2018-07-25T02:29:11.164Z,10.53
2018-07-25T02:31:41.172Z,10.97
2018-07-25T02:34:16.072Z,10.77
2018-07-25T02:36:46.059Z,11.30
2018-07-25T02:39:16.011Z,10.37
2018-07-25T02:41:46.382Z,10.53
2018-07-25T02:44:16.374Z,10.40
2018-07-25T02:46:46.248Z,10.37
2018-07-25T02:49:16.093Z,10.03
2018-07-25T02:51:45.891Z,10.53
2018-07-25T02:54:17.561Z,22.17
2018-07-25T02:56:47.882Z,45.87
2018-07-25T02:59:17.636Z,33.97
2018-07-25T03:01:47.555Z,16.33
2018-07-25T03:04:17.410Z,10.23
2018-07-25T03:06:47.212Z,15.17
2018-07-25T03:09:17.098Z,14.33
2018-07-25T03:11:47.060Z,15.03
2018-07-25T03:14:18.283Z,11.53
2018-07-25T03:16:48.202Z,11.83
2018-07-25T03:19:17.997Z,11.80
2018-07-25T03:21:48.036Z,10.67
2018-07-25T03:24:17.968Z,8.97
2018-07-25T03:26:47.787Z,11.30
2018-07-25T03:29:17.676Z,10.20
2018-07-25T03:31:47.723Z,11.60
2018-07-25T03:34:17.651Z,10.17
2018-07-25T03:36:47.611Z,8.17
2018-07-25T03:39:17.482Z,10.80
2018-07-25T03:41:47.314Z,10.17
2018-07-25T03:44:17.184Z,10.03
2018-07-25T03:46:47.046Z,10.13
2018-07-25T03:49:17.028Z,9.43
2018-07-25T03:51:47.122Z,9.37
2018-07-25T03:54:16.928Z,9.00
2018-07-25T03:56:47.717Z,13.00
2018-07-25T03:59:17.523Z,9.17
2018-07-25T04:01:47.398Z,10.00
2018-07-25T04:04:17.290Z,11.47
2018-07-25T04:06:47.160Z,10.50
2018-07-25T04:09:17.165Z,9.73
2018-07-25T04:11:46.930Z,10.17
2018-07-25T04:14:16.854Z,10.17
2018-07-25T04:16:46.683Z,10.17
2018-07-25T04:19:16.772Z,10.27
2018-07-25T04:21:46.575Z,9.23
2018-07-25T04:24:16.484Z,9.97
2018-07-25T04:26:46.412Z,9.60
2018-07-25T04:29:16.324Z,10.47
2018-07-25T04:31:46.219Z,9.43
2018-07-25T04:34:16.036Z,10.30
2018-07-25T04:36:45.960Z,9.80
2018-07-25T04:39:15.961Z,10.53
2018-07-25T04:41:45.850Z,9.93
2018-07-25T04:44:15.892Z,9.37
2018-07-25T04:46:45.914Z,10.13
2018-07-25T04:49:15.807Z,10.60
2018-07-25T04:51:45.627Z,9.97
2018-07-25T04:54:15.416Z,11.60
2018-07-25T04:56:45.557Z,11.40
2018-07-25T04:59:15.388Z,11.87
2018-07-25T05:01:45.463Z,11.37
2018-07-25T05:04:15.275Z,12.37
2018-07-25T05:06:45.251Z,13.57
2018-07-25T05:09:15.067Z,12.40
2018-07-25T05:11:45.053Z,13.53
2018-07-25T05:14:15.189Z,12.50
2018-07-25T05:16:44.975Z,10.73
2018-07-25T05:19:14.790Z,14.10
2018-07-25T05:21:44.669Z,12.13
2018-07-25T05:24:14.512Z,14.33
2018-07-25T05:26:44.262Z,14.90
2018-07-25T05:29:14.109Z,14.60
2018-07-25T05:31:44.172Z,15.57
2018-07-25T05:34:14.164Z,14.87
2018-07-25T05:36:44.009Z,14.80
2018-07-25T05:39:14.468Z,14.33
2018-07-25T05:41:44.515Z,14.27
2018-07-25T05:44:14.362Z,13.33
2018-07-25T05:46:44.218Z,12.03
2018-07-25T05:49:14.061Z,13.23
2018-07-25T05:51:43.878Z,12.57
2018-07-25T05:54:13.693Z,13.63
2018-07-25T05:56:43.551Z,12.97
2018-07-25T05:59:13.411Z,13.70
2018-07-25T06:01:43.241Z,14.33
2018-07-25T06:04:13.132Z,12.50
2018-07-25T06:06:42.995Z,13.40
2018-07-25T06:09:12.853Z,14.27
2018-07-25T06:11:42.836Z,13.63
2018-07-25T06:14:12.992Z,13.77
2018-07-25T06:16:42.946Z,14.50
2018-07-25T06:19:12.787Z,14.43
2018-07-25T06:21:42.747Z,15.20
2018-07-25T06:24:12.576Z,14.77
2018-07-25T06:26:42.399Z,15.30
2018-07-25T06:29:12.273Z,14.43
2018-07-25T06:31:42.111Z,14.57
2018-07-25T06:34:12.148Z,12.97
2018-07-25T06:36:41.961Z,13.97
2018-07-25T06:39:13.560Z,12.73
2018-07-25T06:41:43.391Z,14.30
2018-07-25T06:44:13.317Z,13.50
2018-07-25T06:46:43.277Z,13.97
2018-07-25T06:49:13.084Z,14.97
2018-07-25T06:51:42.997Z,15.63
2018-07-25T06:54:12.875Z,15.53
2018-07-25T06:56:42.816Z,16.07
2018-07-25T06:59:12.734Z,15.60
2018-07-25T07:01:42.508Z,13.60
2018-07-25T07:04:12.319Z,15.63
2018-07-25T07:06:42.354Z,14.70
2018-07-25T07:09:12.223Z,14.43
2018-07-25T07:11:42.110Z,14.27
2018-07-25T07:14:12.071Z,11.53
2018-07-25T07:16:42.031Z,13.40
2018-07-25T07:19:11.840Z,13.33
2018-07-25T07:21:41.645Z,12.87
2018-07-25T07:24:11.554Z,12.30
2018-07-25T07:26:41.374Z,14.77
2018-07-25T07:29:11.243Z,12.37
2018-07-25T07:31:41.285Z,12.17
2018-07-25T07:34:11.859Z,12.53
2018-07-25T07:36:41.784Z,13.30
2018-07-25T07:39:13.371Z,13.30
2018-07-25T07:41:43.131Z,14.07
2018-07-25T07:44:13.011Z,13.87
2018-07-25T07:46:42.752Z,13.87
2018-07-25T07:49:12.672Z,13.73
2018-07-25T07:51:42.569Z,12.50
2018-07-25T07:54:12.680Z,13.57
2018-07-25T07:56:43.463Z,12.43
2018-07-25T07:59:13.335Z,12.87
2018-07-25T08:01:43.257Z,11.90
2018-07-25T08:04:13.062Z,13.73
2018-07-25T08:06:42.982Z,12.90
2018-07-25T08:09:13.778Z,14.07
2018-07-25T08:11:43.727Z,13.60
2018-07-25T08:14:13.478Z,13.00
2018-07-25T08:16:43.262Z,12.33
2018-07-25T08:19:13.084Z,12.47
2018-07-25T08:21:42.962Z,13.00
2018-07-25T08:24:12.813Z,12.80
2018-07-25T08:26:42.821Z,13.20
2018-07-25T08:29:12.702Z,12.50
2018-07-25T08:31:42.545Z,13.90
2018-07-25T08:34:12.470Z,11.13
2018-07-25T08:36:42.599Z,13.20
2018-07-25T08:39:12.528Z,14.10
2018-07-25T08:41:42.301Z,14.93
2018-07-25T08:44:12.171Z,14.13
2018-07-25T08:46:42.047Z,13.83
2018-07-25T08:49:11.847Z,13.33
2018-07-25T08:51:41.595Z,12.40
2018-07-25T08:54:11.464Z,13.50
2018-07-25T08:56:41.408Z,13.83
2018-07-25T08:59:11.187Z,12.03
2018-07-25T09:01:41.113Z,13.67
2018-07-25T09:04:10.945Z,13.27
2018-07-25T09:06:40.778Z,14.13
2018-07-25T09:09:11.496Z,13.90
2018-07-25T09:11:41.253Z,13.73
2018-07-25T09:14:11.066Z,14.03
2018-07-25T09:16:40.979Z,13.80
2018-07-25T09:19:10.814Z,14.13
2018-07-25T09:21:40.679Z,13.83
2018-07-25T09:24:10.452Z,14.10
2018-07-25T09:26:40.354Z,14.63
2018-07-25T09:29:10.182Z,14.67
2018-07-25T09:31:40.000Z,13.67
2018-07-25T09:34:09.911Z,13.60
2018-07-25T09:36:39.672Z,12.63
2018-07-25T09:39:11.474Z,14.20
2018-07-25T09:41:41.231Z,14.27
2018-07-25T09:44:11.192Z,14.93
2018-07-25T09:46:41.019Z,13.53
2018-07-25T09:49:10.918Z,14.07
2018-07-25T09:51:40.808Z,13.83
2018-07-25T09:54:10.648Z,13.37
2018-07-25T09:56:40.512Z,13.97
2018-07-25T09:59:10.381Z,14.63
2018-07-25T10:01:40.266Z,16.77
2018-07-25T10:04:10.055Z,14.33
2018-07-25T10:06:39.963Z,13.93
2018-07-25T10:09:12.224Z,14.93
2018-07-25T10:11:42.135Z,15.57
2018-07-25T10:14:12.099Z,17.53
2018-07-25T10:16:41.943Z,14.40
2018-07-25T10:19:11.913Z,14.93
2018-07-25T10:21:41.748Z,14.60
2018-07-25T10:24:11.555Z,14.93
2018-07-25T10:26:41.347Z,16.03
2018-07-25T10:29:11.312Z,15.13
2018-07-25T10:31:41.171Z,15.93
2018-07-25T10:34:11.063Z,14.13
2018-07-25T10:36:41.039Z,15.17
2018-07-25T10:39:11.221Z,14.60
2018-07-25T10:41:41.023Z,15.23
2018-07-25T10:44:10.864Z,14.10
2018-07-25T10:46:40.916Z,14.60
2018-07-25T10:49:10.753Z,13.60
2018-07-25T10:51:40.661Z,14.27
2018-07-25T10:54:10.621Z,12.17
2018-07-25T10:56:40.480Z,7.90
2018-07-25T10:59:10.350Z,9.40
2018-07-25T11:01:40.202Z,7.70
2018-07-25T11:04:10.146Z,7.63
2018-07-25T11:06:40.033Z,7.80
2018-07-25T11:09:10.678Z,7.60
2018-07-25T11:11:40.483Z,6.93
2018-07-25T11:14:10.248Z,6.57
2018-07-25T11:16:40.108Z,6.57
2018-07-25T11:19:09.928Z,6.40
2018-07-25T11:21:39.903Z,6.63
2018-07-25T11:24:09.676Z,7.20
2018-07-25T11:26:39.495Z,6.80
2018-07-25T11:29:09.376Z,7.77
2018-07-25T11:31:39.325Z,7.83
2018-07-25T11:34:09.099Z,9.53
2018-07-25T11:36:38.883Z,8.80
2018-07-25T11:39:11.741Z,9.53
2018-07-25T11:41:41.554Z,9.87
2018-07-25T11:44:11.319Z,11.03
2018-07-25T11:46:41.172Z,11.63
2018-07-25T11:49:10.990Z,10.30
2018-07-25T11:51:40.875Z,11.97
2018-07-25T11:54:10.699Z,13.00
2018-07-25T11:56:40.524Z,15.37
2018-07-25T11:59:10.367Z,13.97
2018-07-25T12:01:40.291Z,14.33
2018-07-25T12:04:10.230Z,15.03
2018-07-25T12:06:40.048Z,15.13
2018-07-25T12:09:11.031Z,15.33
2018-07-25T12:11:45.306Z,14.37
2018-07-25T12:14:16.649Z,12.10
2018-07-25T12:16:46.503Z,9.03
2018-07-25T12:19:16.300Z,10.67
2018-07-25T12:21:46.097Z,9.80
2018-07-25T12:24:15.975Z,10.47
2018-07-25T12:26:46.025Z,10.37
2018-07-25T12:29:15.889Z,11.03
2018-07-25T12:31:45.732Z,10.33
2018-07-25T12:34:15.540Z,11.27
2018-07-25T12:36:45.421Z,9.23
2018-07-25T12:39:15.391Z,8.53
2018-07-25T12:41:45.252Z,6.87
2018-07-25T12:44:15.201Z,7.83
2018-07-25T12:46:45.043Z,6.63
2018-07-25T12:49:14.995Z,6.50
2018-07-25T12:51:44.776Z,5.93
2018-07-25T12:54:14.744Z,7.13
2018-07-25T12:56:44.592Z,6.23
2018-07-25T12:59:14.452Z,6.83
2018-07-25T13:01:44.379Z,6.63
2018-07-25T13:04:14.233Z,6.70
2018-07-25T13:06:44.091Z,7.03
2018-07-25T13:09:14.002Z,7.30
2018-07-25T13:11:43.904Z,7.57
2018-07-25T13:14:13.775Z,7.27
2018-07-25T13:16:43.695Z,7.80
2018-07-25T13:19:13.579Z,7.40
2018-07-25T13:21:43.370Z,8.30
2018-07-25T13:24:13.243Z,8.30
2018-07-25T13:26:43.097Z,8.00
2018-07-25T13:29:12.976Z,7.33
2018-07-25T13:31:42.935Z,6.97
2018-07-25T13:34:12.859Z,7.33
2018-07-25T13:36:42.728Z,8.13
2018-07-25T13:39:12.552Z,7.80
2018-07-25T13:41:42.659Z,8.03
2018-07-25T13:44:12.602Z,7.87
2018-07-25T13:46:42.462Z,8.77
2018-07-25T13:49:12.316Z,7.57
2018-07-25T13:51:42.160Z,9.70
2018-07-25T13:54:12.080Z,9.97
2018-07-25T13:56:41.914Z,11.77
2018-07-25T13:59:11.928Z,10.97
2018-07-25T14:01:42.048Z,8.97
2018-07-25T14:04:11.965Z,8.57
2018-07-25T14:06:41.765Z,8.17
2018-07-25T14:09:12.426Z,7.50
2018-07-25T14:11:42.357Z,7.20
2018-07-25T14:14:12.143Z,7.90
2018-07-25T14:16:42.004Z,8.43
2018-07-25T14:19:11.929Z,7.90
2018-07-25T14:21:41.832Z,8.40
2018-07-25T14:24:11.665Z,7.27
2018-07-25T14:26:41.489Z,8.30
2018-07-25T14:29:11.458Z,8.03
2018-07-25T14:31:41.332Z,7.57
2018-07-25T14:34:11.265Z,6.90
2018-07-25T14:36:41.235Z,7.70
2018-07-25T14:39:11.895Z,7.60
2018-07-25T14:41:42.033Z,8.00
2018-07-25T14:44:12.065Z,7.70
2018-07-25T14:46:41.884Z,8.07
2018-07-25T14:49:11.800Z,7.37
2018-07-25T14:51:41.676Z,7.53
2018-07-25T14:54:11.572Z,7.20
2018-07-25T14:56:41.493Z,7.03
2018-07-25T14:59:11.319Z,7.43
2018-07-25T15:01:41.220Z,7.37
2018-07-25T15:04:11.100Z,7.43
2018-07-25T15:06:41.091Z,7.57
2018-07-25T15:09:11.771Z,8.17
2018-07-25T15:11:41.535Z,8.27
2018-07-25T15:14:11.428Z,8.30
2018-07-25T15:16:41.256Z,8.53
2018-07-25T15:19:11.084Z,9.10
2018-07-25T15:21:41.019Z,9.07
2018-07-25T15:24:10.870Z,9.33
2018-07-25T15:26:40.723Z,8.53
2018-07-25T15:29:10.662Z,8.87
2018-07-25T15:31:40.461Z,8.27
2018-07-25T15:34:10.266Z,8.53
2018-07-25T15:36:47.320Z,8.60
2018-07-25T15:39:20.405Z,8.60
2018-07-25T15:41:51.064Z,9.07
2018-07-25T15:44:22.376Z,7.60
2018-07-25T15:46:52.388Z,8.50
2018-07-25T15:49:22.365Z,8.53
2018-07-25T15:51:52.237Z,8.17
2018-07-25T15:54:22.140Z,8.53
2018-07-25T15:56:51.939Z,8.30
2018-07-25T15:59:21.775Z,7.77
2018-07-25T16:01:51.603Z,7.50
2018-07-25T16:04:21.435Z,7.53
2018-07-25T16:06:51.299Z,7.50
2018-07-25T16:09:21.097Z,8.33
2018-07-25T16:11:51.008Z,8.50
2018-07-25T16:14:21.010Z,8.33
2018-07-25T16:16:50.840Z,8.80
2018-07-25T16:19:20.616Z,9.63
2018-07-25T16:21:50.552Z,9.33
2018-07-25T16:24:20.389Z,10.37
2018-07-25T16:26:50.191Z,9.60
2018-07-25T16:29:20.076Z,9.50
2018-07-25T16:31:49.859Z,8.60
2018-07-25T16:34:19.734Z,8.40
2018-07-25T16:36:49.549Z,8.20
2018-07-25T16:39:19.948Z,10.03
2018-07-25T16:41:49.779Z,11.77
2018-07-25T16:44:19.656Z,12.77
2018-07-25T16:46:49.435Z,13.37
2018-07-25T16:49:19.203Z,15.50
2018-07-25T16:51:49.062Z,14.23
2018-07-25T16:54:18.895Z,13.80
2018-07-25T16:56:48.751Z,13.80
2018-07-25T16:59:18.660Z,14.93
2018-07-25T17:01:48.569Z,15.23
2018-07-25T17:04:18.371Z,14.00
2018-07-25T17:06:48.191Z,14.60
2018-07-25T17:09:18.075Z,16.70
2018-07-25T17:11:48.275Z,16.40
2018-07-25T17:14:18.092Z,16.87
2018-07-25T17:16:48.008Z,16.13
2018-07-25T17:19:17.940Z,16.87
2018-07-25T17:21:47.825Z,16.30
2018-07-25T17:24:17.640Z,14.50
2018-07-25T17:26:47.489Z,15.30
2018-07-25T17:29:17.516Z,14.77
2018-07-25T17:31:47.358Z,15.30
2018-07-25T17:34:17.141Z,15.27
2018-07-25T17:36:47.038Z,11.93
2018-07-25T17:39:16.844Z,13.03
2018-07-25T17:41:46.661Z,12.27
2018-07-25T17:44:16.475Z,11.80
2018-07-25T17:46:46.376Z,8.67
2018-07-25T17:49:16.124Z,9.80
2018-07-25T17:51:45.996Z,8.80
2018-07-25T17:54:15.843Z,9.27
2018-07-25T17:56:45.789Z,10.63
2018-07-25T17:59:15.654Z,9.97
2018-07-25T18:01:45.584Z,10.87
2018-07-25T18:04:15.412Z,9.63
2018-07-25T18:06:45.227Z,9.50
2018-07-25T18:09:15.243Z,9.13
2018-07-25T18:11:45.119Z,9.67
2018-07-25T18:14:16.023Z,9.60
2018-07-25T18:16:46.282Z,9.13
2018-07-25T18:19:16.864Z,9.03
2018-07-25T18:21:46.750Z,9.13
2018-07-25T18:24:16.566Z,10.93
2018-07-25T18:26:46.459Z,10.33
2018-07-25T18:29:16.279Z,10.53
2018-07-25T18:31:47.135Z,10.20
2018-07-25T18:34:17.015Z,9.93
2018-07-25T18:36:46.961Z,10.43
2018-07-25T18:39:16.812Z,10.00
2018-07-25T18:41:46.668Z,9.90
2018-07-25T18:44:16.435Z,9.40
2018-07-25T18:46:46.419Z,9.20
2018-07-25T18:49:16.440Z,9.43
2018-07-25T18:51:46.320Z,9.13
2018-07-25T18:54:16.119Z,8.90
2018-07-25T18:56:45.917Z,9.27
2018-07-25T18:59:15.684Z,8.70
2018-07-25T19:01:45.505Z,8.83
2018-07-25T19:04:15.984Z,9.07
2018-07-25T19:06:45.731Z,8.70
2018-07-25T19:09:16.934Z,8.03
2018-07-25T19:11:47.336Z,9.33
2018-07-25T19:14:22.656Z,9.37
2018-07-25T19:16:52.681Z,8.90
2018-07-25T19:19:22.544Z,9.17
2018-07-25T19:21:52.404Z,9.47
2018-07-25T19:24:22.284Z,9.73
2018-07-25T19:26:52.118Z,10.07
2018-07-25T19:29:21.997Z,9.33
2018-07-25T19:31:51.816Z,9.57
2018-07-25T19:34:21.734Z,10.33
2018-07-25T19:36:51.647Z,10.47
2018-07-25T19:39:21.415Z,8.87
2018-07-25T19:41:51.433Z,9.17
2018-07-25T19:44:21.546Z,9.67
2018-07-25T19:46:51.639Z,9.83
2018-07-25T19:49:21.486Z,8.63
2018-07-25T19:51:51.272Z,10.60
2018-07-25T19:54:21.173Z,10.50
2018-07-25T19:56:52.383Z,9.50
2018-07-25T19:59:22.586Z,9.83
2018-07-25T20:01:53.279Z,9.73
2018-07-25T20:04:23.883Z,9.03
2018-07-25T20:06:53.756Z,10.03
2018-07-25T20:09:23.720Z,10.03
2018-07-25T20:11:53.581Z,9.20
2018-07-25T20:14:28.473Z,9.80
2018-07-25T20:16:58.553Z,9.77
2018-07-25T20:19:28.422Z,9.87
2018-07-25T20:21:58.356Z,9.03
2018-07-25T20:24:28.132Z,9.53
2018-07-25T20:26:57.982Z,9.30
2018-07-25T20:29:27.960Z,9.37
2018-07-25T20:31:58.028Z,10.30
2018-07-25T20:34:27.943Z,9.50
2018-07-25T20:36:57.848Z,9.73
2018-07-25T20:39:27.740Z,9.83
2018-07-25T20:41:57.896Z,10.43
2018-07-25T20:44:27.815Z,9.53
2018-07-25T20:46:57.601Z,9.47
2018-07-25T20:49:27.487Z,9.30
2018-07-25T20:51:57.261Z,9.60
2018-07-25T20:54:27.023Z,9.23
2018-07-25T20:56:56.984Z,8.73
2018-07-25T20:59:26.839Z,9.00
2018-07-25T21:01:56.864Z,9.30
2018-07-25T21:04:26.685Z,10.10
2018-07-25T21:06:56.520Z,9.00
2018-07-25T21:09:26.436Z,9.20
2018-07-25T21:11:56.195Z,10.10
2018-07-25T21:14:25.971Z,9.93
2018-07-25T21:16:55.972Z,9.67
2018-07-25T21:19:25.901Z,9.37
2018-07-25T21:21:55.832Z,9.50
2018-07-25T21:24:26.016Z,9.77
2018-07-25T21:26:56.088Z,9.87
2018-07-25T21:29:25.939Z,10.27
2018-07-25T21:31:55.924Z,9.77
2018-07-25T21:34:25.711Z,10.30
2018-07-25T21:36:55.566Z,9.83
2018-07-25T21:39:25.430Z,9.20
2018-07-25T21:41:55.469Z,10.63
2018-07-25T21:44:25.372Z,10.40
2018-07-25T21:46:55.260Z,10.13
2018-07-25T21:49:25.192Z,10.37
2018-07-25T21:51:55.246Z,11.10
2018-07-25T21:54:25.216Z,10.20
2018-07-25T21:56:55.112Z,10.57
2018-07-25T21:59:24.980Z,10.30
2018-07-25T22:01:54.870Z,10.80
2018-07-25T22:04:24.667Z,10.30
2018-07-25T22:06:54.455Z,9.90
2018-07-25T22:09:24.293Z,9.63
2018-07-25T22:11:54.291Z,10.53
2018-07-25T22:14:24.081Z,9.03
2018-07-25T22:16:53.852Z,9.43
2018-07-25T22:19:23.725Z,9.97
2018-07-25T22:21:53.459Z,10.73
2018-07-25T22:24:23.539Z,9.23
2018-07-25T22:26:53.905Z,8.93
2018-07-25T22:29:24.008Z,15.27
2018-07-25T22:31:54.085Z,12.60
2018-07-25T22:34:24.221Z,25.10
2018-07-25T22:36:54.183Z,21.33
2018-07-25T22:39:23.964Z,16.23
2018-07-25T22:41:53.774Z,15.83
2018-07-25T22:44:23.583Z,17.00
2018-07-25T22:46:53.512Z,15.13
2018-07-25T22:49:23.362Z,13.83
2018-07-25T22:51:53.692Z,12.50
2018-07-25T22:54:23.892Z,11.03
2018-07-25T22:56:54.012Z,9.70
2018-07-25T22:59:23.812Z,11.03
2018-07-25T23:01:53.893Z,10.00
2018-07-25T23:04:23.759Z,8.10
2018-07-25T23:06:53.952Z,8.63
2018-07-25T23:09:23.792Z,9.53
2018-07-25T23:11:53.899Z,8.43
2018-07-25T23:14:26.808Z,9.50
2018-07-25T23:16:56.815Z,8.83
2018-07-25T23:19:27.068Z,8.27
2018-07-25T23:21:57.340Z,8.57
2018-07-25T23:24:28.385Z,7.87
2018-07-25T23:26:59.078Z,9.23
2018-07-25T23:29:29.083Z,8.07
2018-07-25T23:31:59.115Z,7.87
2018-07-25T23:34:28.986Z,8.93
2018-07-25T23:36:58.942Z,8.03
2018-07-25T23:39:28.721Z,8.37
2018-07-25T23:41:59.495Z,8.30
2018-07-25T23:44:29.331Z,8.37
2018-07-25T23:46:59.292Z,8.23
2018-07-25T23:49:29.392Z,7.60
2018-07-25T23:51:59.280Z,7.27
2018-07-25T23:54:29.134Z,7.27
2018-07-25T23:56:59.027Z,7.70
2018-07-25T23:59:28.934Z,7.00
